createdAt,value
2022-09-28T00:01:16.207Z,18.16
2022-09-28T00:03:44.346Z,18.15
2022-09-28T00:06:13.890Z,17.33
2022-09-28T00:08:40.256Z,16.41
2022-09-28T00:11:12.182Z,15.83
2022-09-28T00:13:39.985Z,16.21
2022-09-28T00:16:11.329Z,16.83
2022-09-28T00:18:37.894Z,17.23
2022-09-28T00:21:12.362Z,17.53
2022-09-28T00:24:00.366Z,17.82
2022-09-28T00:26:29.052Z,18.09
2022-09-28T00:28:59.673Z,18.16
2022-09-28T00:31:33.222Z,17.42
2022-09-28T00:34:01.391Z,16.55
2022-09-28T00:36:31.525Z,16.04
2022-09-28T00:39:02.369Z,16.45
2022-09-28T00:41:29.201Z,17.10
2022-09-28T00:44:41.404Z,17.55
2022-09-28T00:47:25.699Z,17.92
2022-09-28T00:50:00.804Z,18.19
2022-09-28T00:52:38.041Z,18.21
2022-09-28T00:55:11.721Z,17.37
2022-09-28T00:57:43.850Z,16.48
2022-09-28T01:00:11.520Z,15.96
2022-09-28T01:02:37.923Z,16.44
2022-09-28T01:05:09.591Z,17.05
2022-09-28T01:07:37.883Z,17.37
2022-09-28T01:10:05.411Z,17.53
2022-09-28T01:12:31.813Z,17.77
2022-09-28T01:15:00.033Z,18.05
2022-09-28T01:17:52.908Z,18.31
2022-09-28T01:21:00.898Z,18.21
2022-09-28T01:24:09.836Z,17.05
2022-09-28T01:26:59.115Z,16.35
2022-09-28T01:29:57.468Z,16.85
2022-09-28T01:32:46.911Z,17.38
2022-09-28T01:35:29.489Z,17.73
2022-09-28T01:38:09.067Z,17.95
2022-09-28T01:40:37.018Z,17.82
2022-09-28T01:43:14.478Z,16.89
2022-09-28T01:45:49.257Z,16.01
2022-09-28T01:48:31.807Z,16.27
2022-09-28T01:51:04.194Z,16.63
2022-09-28T01:53:52.894Z,16.89
2022-09-28T01:56:29.281Z,17.09
2022-09-28T01:59:05.533Z,17.29
2022-09-28T02:02:03.369Z,17.51
2022-09-28T02:04:39.152Z,17.78
2022-09-28T02:07:51.208Z,18.08
2022-09-28T02:10:28.798Z,17.93
2022-09-28T02:13:08.085Z,16.92
2022-09-28T02:16:14.688Z,15.97
2022-09-28T02:18:42.186Z,15.52
2022-09-28T02:21:22.609Z,16.26
2022-09-28T02:23:57.663Z,16.88
2022-09-28T02:26:32.854Z,17.27
2022-09-28T02:28:59.341Z,17.58
2022-09-28T02:31:27.613Z,17.82
2022-09-28T02:33:57.206Z,17.84
2022-09-28T02:36:26.843Z,16.99
2022-09-28T02:38:56.689Z,16.04
2022-09-28T02:41:41.992Z,15.53
2022-09-28T02:44:33.311Z,16.09
2022-09-28T02:47:55.859Z,16.83
2022-09-28T02:51:10.724Z,17.44
2022-09-28T02:54:18.941Z,17.66
2022-09-28T02:57:16.633Z,17.95
2022-09-28T03:00:13.653Z,17.94
2022-09-28T03:03:26.210Z,16.86
2022-09-28T03:06:26.178Z,16.20
2022-09-28T03:09:05.830Z,16.78
2022-09-28T03:11:50.544Z,17.39
2022-09-28T03:14:18.393Z,17.85
2022-09-28T03:16:45.864Z,18.11
2022-09-28T03:19:15.624Z,18.09
2022-09-28T03:21:41.956Z,17.24
2022-09-28T03:24:10.609Z,16.34
2022-09-28T03:26:38.748Z,15.86
2022-09-28T03:29:06.295Z,16.47
2022-09-28T03:31:32.837Z,17.06
2022-09-28T03:33:59.338Z,17.34
2022-09-28T03:36:26.028Z,17.46
2022-09-28T03:38:57.790Z,17.49
2022-09-28T03:41:24.646Z,17.53
2022-09-28T03:43:51.178Z,17.60
2022-09-28T03:46:17.652Z,17.64
2022-09-28T03:48:44.069Z,17.62
2022-09-28T03:51:12.556Z,17.58
2022-09-28T03:53:40.060Z,17.64
2022-09-28T03:56:15.515Z,17.65
2022-09-28T03:58:42.371Z,17.64
2022-09-28T04:01:16.807Z,17.57
2022-09-28T04:03:45.660Z,17.49
2022-09-28T04:06:12.729Z,17.46
2022-09-28T04:08:39.629Z,17.58
2022-09-28T04:11:06.198Z,17.59
2022-09-28T04:13:32.575Z,17.53
2022-09-28T04:16:00.924Z,17.47
2022-09-28T04:18:28.323Z,17.38
2022-09-28T04:21:20.967Z,17.18
2022-09-28T04:23:48.426Z,16.98
2022-09-28T04:26:25.149Z,16.98
2022-09-28T04:29:10.283Z,17.01
2022-09-28T04:31:41.075Z,16.94
2022-09-28T04:34:08.503Z,16.84
2022-09-28T04:36:35.004Z,16.86
2022-09-28T04:39:01.377Z,16.91
2022-09-28T04:41:27.913Z,16.90
2022-09-28T04:43:54.285Z,16.83
2022-09-28T04:46:20.760Z,16.78
2022-09-28T04:48:47.253Z,16.74
2022-09-28T04:51:13.912Z,16.75
2022-09-28T04:53:40.251Z,16.75
2022-09-28T04:56:11.541Z,16.82
2022-09-28T04:58:39.099Z,16.91
2022-09-28T05:01:10.835Z,17.01
2022-09-28T05:03:37.385Z,17.11
2022-09-28T05:06:06.314Z,17.20
2022-09-28T05:08:34.704Z,17.33
2022-09-28T05:11:05.714Z,17.42
2022-09-28T05:13:41.155Z,17.54
2022-09-28T05:16:09.459Z,17.77
2022-09-28T05:18:35.877Z,17.96
2022-09-28T05:21:03.223Z,18.06
2022-09-28T05:23:29.663Z,17.97
2022-09-28T05:25:56.019Z,17.10
2022-09-28T05:28:28.413Z,16.09
2022-09-28T05:31:00.153Z,15.48
2022-09-28T05:33:28.108Z,15.94
2022-09-28T05:35:59.040Z,16.51
2022-09-28T05:38:27.847Z,16.87
2022-09-28T05:40:54.302Z,17.05
2022-09-28T05:43:21.136Z,17.18
2022-09-28T05:45:51.534Z,17.33
2022-09-28T05:48:20.878Z,17.57
2022-09-28T05:50:51.969Z,17.67
2022-09-28T05:53:18.942Z,17.66
2022-09-28T05:55:45.376Z,17.69
2022-09-28T05:58:11.753Z,17.72
2022-09-28T06:00:38.187Z,17.69
2022-09-28T06:03:12.422Z,17.70
2022-09-28T06:05:39.543Z,17.71
2022-09-28T06:08:09.783Z,17.65
2022-09-28T06:10:36.202Z,17.58
2022-09-28T06:13:02.579Z,17.51
2022-09-28T06:15:31.742Z,17.49
2022-09-28T06:18:07.319Z,17.51
2022-09-28T06:20:37.513Z,17.49
2022-09-28T06:23:04.284Z,17.48
2022-09-28T06:25:31.479Z,17.49
2022-09-28T06:28:02.354Z,17.46
2022-09-28T06:30:31.987Z,17.41
2022-09-28T06:33:01.089Z,17.34
2022-09-28T06:35:30.651Z,17.26
2022-09-28T06:38:00.700Z,17.22
2022-09-28T06:40:28.298Z,17.21
2022-09-28T06:43:06.455Z,17.30
2022-09-28T06:45:32.790Z,17.24
2022-09-28T06:48:01.550Z,17.25
2022-09-28T06:50:37.910Z,17.24
2022-09-28T06:53:06.292Z,17.21
2022-09-28T06:55:32.972Z,17.21
2022-09-28T06:58:05.441Z,17.18
2022-09-28T07:00:36.011Z,17.23
2022-09-28T07:03:15.478Z,17.14
2022-09-28T07:05:49.186Z,17.21
2022-09-28T07:08:19.118Z,17.36
2022-09-28T07:10:48.855Z,17.58
2022-09-28T07:13:40.873Z,18.07
2022-09-28T07:16:03.152Z,18.67
2022-09-28T07:18:29.954Z,18.85
2022-09-28T07:20:57.011Z,17.98
2022-09-28T07:23:27.008Z,16.96
2022-09-28T07:25:53.650Z,16.06
2022-09-28T07:28:21.231Z,15.49
2022-09-28T07:30:47.782Z,15.73
2022-09-28T07:33:16.643Z,16.14
2022-09-28T07:35:57.601Z,16.29
2022-09-28T07:38:25.482Z,16.31
2022-09-28T07:41:10.500Z,16.34
2022-09-28T07:43:43.411Z,16.44
2022-09-28T07:46:25.379Z,16.46
2022-09-28T07:48:58.105Z,16.53
2022-09-28T07:51:24.932Z,16.64
2022-09-28T07:53:53.655Z,16.73
2022-09-28T07:56:20.504Z,16.83
2022-09-28T07:58:48.593Z,16.87
2022-09-28T08:01:16.464Z,16.78
2022-09-28T08:03:44.796Z,16.79
2022-09-28T08:06:14.945Z,16.81
2022-09-28T08:08:45.655Z,16.91
2022-09-28T08:11:16.324Z,16.87
2022-09-28T08:13:44.984Z,16.90
2022-09-28T08:16:12.012Z,17.03
2022-09-28T08:18:38.625Z,17.04
2022-09-28T08:21:24.741Z,16.90
2022-09-28T08:23:52.343Z,16.79
2022-09-28T08:26:18.963Z,16.75
2022-09-28T08:28:47.110Z,16.94
2022-09-28T08:31:13.717Z,17.15
2022-09-28T08:33:41.514Z,17.33
2022-09-28T08:36:09.790Z,17.39
2022-09-28T08:38:36.215Z,17.23
2022-09-28T08:41:36.401Z,17.18
2022-09-28T08:44:23.386Z,17.28
2022-09-28T08:46:58.101Z,17.39
2022-09-28T08:49:41.385Z,17.39
2022-09-28T08:52:25.462Z,17.47
2022-09-28T08:55:11.251Z,17.52
2022-09-28T08:57:47.735Z,17.47
2022-09-28T09:00:20.804Z,17.51
2022-09-28T09:02:48.426Z,17.44
2022-09-28T09:05:19.792Z,16.78
2022-09-28T09:08:18.001Z,16.07
2022-09-28T09:10:56.438Z,16.37
2022-09-28T09:14:13.586Z,16.62
2022-09-28T09:17:13.685Z,16.66
2022-09-28T09:19:54.043Z,16.65
2022-09-28T09:22:41.023Z,16.53
2022-09-28T09:25:24.869Z,16.33
2022-09-28T09:28:04.040Z,16.10
2022-09-28T09:31:06.168Z,16.01
2022-09-28T09:33:55.957Z,16.23
2022-09-28T09:37:01.320Z,16.65
2022-09-28T09:39:30.545Z,16.86
2022-09-28T09:42:12.861Z,17.04
2022-09-28T09:44:50.492Z,17.09
2022-09-28T09:47:29.353Z,17.03
2022-09-28T09:50:24.677Z,17.19
2022-09-28T09:53:04.359Z,17.30
2022-09-28T09:55:41.437Z,17.39
2022-09-28T09:58:15.797Z,17.28
2022-09-28T10:00:47.470Z,16.45
2022-09-28T10:03:29.639Z,15.86
2022-09-28T10:06:04.170Z,16.32
2022-09-28T10:08:40.294Z,16.71
2022-09-28T10:11:22.129Z,17.01
2022-09-28T10:13:48.713Z,17.24
2022-09-28T10:16:19.179Z,17.20
2022-09-28T10:18:46.837Z,16.51
2022-09-28T10:21:22.596Z,15.90
2022-09-28T10:23:57.405Z,16.33
2022-09-28T10:26:38.546Z,16.75
2022-09-28T10:29:16.525Z,16.88
2022-09-28T10:31:54.030Z,16.93
2022-09-28T10:34:35.666Z,16.98
2022-09-28T10:37:12.989Z,17.00
2022-09-28T10:39:54.766Z,16.88
2022-09-28T10:42:27.801Z,16.94
2022-09-28T10:45:04.243Z,16.91
2022-09-28T10:47:32.284Z,16.90
2022-09-28T10:49:59.863Z,16.89
2022-09-28T10:52:42.027Z,16.93
2022-09-28T10:55:20.768Z,16.86
2022-09-28T10:57:48.012Z,17.03
2022-09-28T11:00:39.984Z,17.01
2022-09-28T11:03:24.384Z,16.13
2022-09-28T11:06:09.241Z,15.29
2022-09-28T11:08:44.334Z,15.39
2022-09-28T11:11:15.307Z,15.84
2022-09-28T11:13:53.010Z,16.10
2022-09-28T11:16:33.162Z,16.31
2022-09-28T11:19:21.874Z,16.54
2022-09-28T11:21:48.299Z,16.39
2022-09-28T11:24:18.935Z,15.65
2022-09-28T11:26:50.144Z,14.95
2022-09-28T11:29:26.525Z,15.09
2022-09-28T11:31:58.515Z,15.79
2022-09-28T11:34:57.400Z,16.23
2022-09-28T11:38:08.038Z,16.60
2022-09-28T11:41:10.030Z,16.82
2022-09-28T11:44:02.697Z,16.40
2022-09-28T11:46:47.628Z,15.97
2022-09-28T11:49:37.623Z,16.04
2022-09-28T11:52:39.161Z,16.97
2022-09-28T11:55:25.703Z,17.48
2022-09-28T11:58:04.914Z,17.02
2022-09-28T12:00:40.656Z,16.53
2022-09-28T12:03:37.057Z,16.17
2022-09-28T12:06:09.608Z,15.86
2022-09-28T12:09:02.757Z,15.68
2022-09-28T12:11:43.667Z,15.49
2022-09-28T12:14:25.910Z,15.30
2022-09-28T12:17:19.257Z,15.10
2022-09-28T12:20:03.801Z,14.92
2022-09-28T12:22:45.276Z,14.78
2022-09-28T12:25:20.625Z,14.69
2022-09-28T12:28:07.144Z,14.70
2022-09-28T12:30:39.955Z,14.83
2022-09-28T12:33:17.126Z,14.96
2022-09-28T12:36:07.947Z,15.08
2022-09-28T12:39:35.740Z,15.21
2022-09-28T12:42:31.829Z,15.23
2022-09-28T12:45:32.855Z,15.12
2022-09-28T12:48:35.783Z,14.88
2022-09-28T12:51:28.107Z,14.63
2022-09-28T12:54:18.748Z,14.45
2022-09-28T12:57:29.105Z,14.35
2022-09-28T13:00:09.927Z,14.26
2022-09-28T13:03:23.303Z,14.21
2022-09-28T13:06:24.078Z,14.23
2022-09-28T13:09:15.870Z,14.35
2022-09-28T13:12:13.508Z,14.45
2022-09-28T13:14:55.916Z,14.57
2022-09-28T13:17:38.274Z,14.59
2022-09-28T13:20:20.506Z,14.53
2022-09-28T13:23:13.602Z,14.49
2022-09-28T13:25:55.060Z,14.41
2022-09-28T13:28:27.237Z,14.37
2022-09-28T13:33:36.390Z,14.29
2022-09-28T13:36:26.894Z,14.29
2022-09-28T13:38:56.809Z,14.25
2022-09-28T13:41:31.498Z,14.47
2022-09-28T13:44:23.876Z,15.62
2022-09-28T13:47:21.822Z,16.43
2022-09-28T13:50:26.847Z,16.03
2022-09-28T13:53:25.447Z,15.48
2022-09-28T13:56:25.777Z,15.13
2022-09-28T13:59:11.458Z,14.87
2022-09-28T14:01:55.267Z,14.66
2022-09-28T14:04:46.523Z,14.46
2022-09-28T14:07:25.490Z,14.31
2022-09-28T14:10:37.457Z,14.18
2022-09-28T14:13:06.649Z,14.07
2022-09-28T14:15:44.381Z,13.99
2022-09-28T14:18:25.145Z,13.95
2022-09-28T14:21:44.769Z,13.90
2022-09-28T14:24:54.852Z,13.85
2022-09-28T14:28:00.915Z,13.80
2022-09-28T14:30:47.906Z,13.77
2022-09-28T14:33:28.842Z,13.73
2022-09-28T14:36:07.510Z,13.68
2022-09-28T14:39:11.051Z,13.64
2022-09-28T14:41:44.354Z,14.44
2022-09-28T14:44:20.727Z,15.43
2022-09-28T14:46:48.313Z,15.31
2022-09-28T14:49:18.945Z,14.90
2022-09-28T14:51:57.307Z,14.59
2022-09-28T14:54:43.979Z,14.31
2022-09-28T14:57:25.779Z,14.09
2022-09-28T14:59:55.415Z,13.91
2022-09-28T15:02:31.679Z,13.78
2022-09-28T15:05:19.184Z,13.67
2022-09-28T15:07:55.182Z,13.56
2022-09-28T15:10:30.948Z,13.75
2022-09-28T15:13:04.850Z,15.37
2022-09-28T15:15:38.047Z,17.12
2022-09-28T15:18:27.080Z,17.77
2022-09-28T15:20:55.607Z,16.87
2022-09-28T15:23:29.600Z,15.98
2022-09-28T15:25:56.146Z,15.31
2022-09-28T15:28:23.884Z,14.82
2022-09-28T15:30:59.309Z,14.44
2022-09-28T15:33:53.315Z,14.13
2022-09-28T15:36:29.073Z,13.83
2022-09-28T15:39:01.197Z,13.64
2022-09-28T15:41:28.624Z,13.50
2022-09-28T15:44:14.593Z,13.82
2022-09-28T15:46:51.449Z,16.21
2022-09-28T15:49:38.727Z,17.83
2022-09-28T15:52:07.780Z,17.14
2022-09-28T15:54:44.464Z,16.29
2022-09-28T15:57:38.157Z,15.64
2022-09-28T16:00:29.712Z,15.12
2022-09-28T16:03:08.228Z,14.71
2022-09-28T16:06:08.988Z,14.41
2022-09-28T16:08:35.643Z,14.13
2022-09-28T16:11:17.639Z,13.92
2022-09-28T16:14:15.399Z,13.68
2022-09-28T16:16:49.010Z,14.17
2022-09-28T16:19:31.560Z,16.41
2022-09-28T16:22:03.464Z,17.73
2022-09-28T16:24:35.748Z,16.94
2022-09-28T16:27:41.600Z,15.96
2022-09-28T16:30:30.869Z,15.11
2022-09-28T16:33:01.623Z,14.61
2022-09-28T16:35:40.266Z,14.28
2022-09-28T16:38:16.093Z,14.02
2022-09-28T16:40:54.726Z,13.80
2022-09-28T16:43:28.926Z,14.00
2022-09-28T16:45:59.374Z,15.44
2022-09-28T16:48:32.206Z,16.73
2022-09-28T16:50:59.262Z,17.49
2022-09-28T16:53:45.633Z,16.78
2022-09-28T16:56:13.359Z,15.80
2022-09-28T16:58:42.600Z,15.15
2022-09-28T17:01:11.914Z,14.65
2022-09-28T17:03:41.887Z,14.52
2022-09-28T17:06:11.987Z,15.50
2022-09-28T17:08:38.436Z,16.38
2022-09-28T17:11:23.991Z,16.71
2022-09-28T17:13:53.101Z,15.93
2022-09-28T17:19:26.937Z,14.41
2022-09-28T17:21:53.445Z,14.28
2022-09-28T17:24:20.429Z,15.19
2022-09-28T17:26:51.222Z,15.90
2022-09-28T17:29:19.141Z,16.18
2022-09-28T17:31:46.875Z,15.57
2022-09-28T17:34:19.335Z,14.78
2022-09-28T17:36:46.590Z,14.11
2022-09-28T17:39:16.320Z,13.85
2022-09-28T17:41:42.951Z,14.55
2022-09-28T17:44:09.996Z,15.22
2022-09-28T17:46:40.112Z,15.60
2022-09-28T17:49:11.455Z,15.85
2022-09-28T17:51:38.068Z,15.86
2022-09-28T17:54:07.414Z,15.11
2022-09-28T17:56:35.572Z,14.25
2022-09-28T17:59:12.046Z,13.72
2022-09-28T18:01:40.130Z,14.18
2022-09-28T18:04:19.179Z,14.77
2022-09-28T18:06:59.998Z,15.15
2022-09-28T18:09:26.606Z,15.39
2022-09-28T18:12:00.420Z,15.55
2022-09-28T18:14:28.105Z,15.54
2022-09-28T18:16:54.884Z,14.70
2022-09-28T18:19:21.646Z,13.71
2022-09-28T18:21:48.425Z,13.13
2022-09-28T18:24:15.022Z,13.57
2022-09-28T18:26:41.833Z,14.12
2022-09-28T18:29:08.632Z,14.51
2022-09-28T18:31:36.844Z,14.80
2022-09-28T18:34:03.329Z,14.94
2022-09-28T18:36:35.159Z,14.99
2022-09-28T18:39:03.113Z,15.07
2022-09-28T18:41:29.994Z,15.03
2022-09-28T18:44:00.621Z,14.28
2022-09-28T18:46:29.682Z,13.37
2022-09-28T18:48:56.933Z,12.79
2022-09-28T18:51:24.183Z,13.18
2022-09-28T18:53:53.485Z,13.80
2022-09-28T18:56:21.333Z,14.15
2022-09-28T18:58:52.278Z,14.28
2022-09-28T19:01:30.551Z,14.35
2022-09-28T19:04:01.408Z,14.37
2022-09-28T19:06:33.362Z,14.41
2022-09-28T19:09:01.144Z,14.43
2022-09-28T19:11:28.397Z,14.53
2022-09-28T19:13:56.785Z,14.62
2022-09-28T19:16:28.226Z,14.59
2022-09-28T19:18:58.254Z,13.88
2022-09-28T19:21:29.033Z,13.06
2022-09-28T19:24:03.532Z,12.63
2022-09-28T19:26:32.330Z,13.31
2022-09-28T19:28:59.855Z,13.85
2022-09-28T19:31:27.926Z,14.07
2022-09-28T19:33:54.392Z,14.15
2022-09-28T19:36:23.760Z,14.16
2022-09-28T19:38:52.848Z,14.11
2022-09-28T19:41:50.501Z,14.01
2022-09-28T19:44:27.498Z,13.95
2022-09-28T19:47:07.534Z,14.06
2022-09-28T19:49:40.638Z,14.15
2022-09-28T19:52:16.808Z,14.19
2022-09-28T19:55:00.908Z,14.23
2022-09-28T19:57:31.954Z,14.27
2022-09-28T20:00:02.854Z,14.35
2022-09-28T20:02:30.805Z,14.26
2022-09-28T20:04:57.506Z,13.53
2022-09-28T20:07:24.332Z,12.73
2022-09-28T20:09:51.170Z,12.25
2022-09-28T20:12:17.501Z,12.71
2022-09-28T20:14:43.883Z,13.28
2022-09-28T20:17:10.191Z,13.58
2022-09-28T20:19:36.581Z,13.77
2022-09-28T20:22:03.414Z,13.92
2022-09-28T20:24:31.132Z,14.04
2022-09-28T20:26:58.365Z,14.14
2022-09-28T20:29:24.818Z,14.20
2022-09-28T20:31:51.581Z,14.23
2022-09-28T20:34:18.294Z,14.28
2022-09-28T20:36:44.721Z,14.28
2022-09-28T20:39:11.829Z,14.25
2022-09-28T20:41:38.266Z,14.25
2022-09-28T20:44:06.475Z,14.32
2022-09-28T20:46:35.862Z,14.37
2022-09-28T20:49:06.605Z,14.44
2022-09-28T20:51:32.940Z,14.54
2022-09-28T20:53:59.439Z,14.52
2022-09-28T20:56:30.795Z,13.84
2022-09-28T20:58:57.226Z,13.01
2022-09-28T21:01:28.129Z,12.51
2022-09-28T21:04:01.230Z,13.11
2022-09-28T21:06:32.003Z,14.06
2022-09-28T21:08:58.622Z,14.63
2022-09-28T21:11:27.519Z,14.96
2022-09-28T21:14:00.545Z,15.02
2022-09-28T21:16:31.533Z,14.13
2022-09-28T21:18:58.687Z,13.18
2022-09-28T21:21:26.177Z,12.62
2022-09-28T21:23:56.311Z,13.10
2022-09-28T21:26:26.684Z,13.93
2022-09-28T21:28:53.875Z,14.61
2022-09-28T21:31:28.261Z,14.94
2022-09-28T21:33:56.808Z,14.95
2022-09-28T21:36:24.801Z,14.86
2022-09-28T21:38:51.389Z,14.04
2022-09-28T21:41:17.667Z,13.11
2022-09-28T21:43:45.300Z,12.54
2022-09-28T21:46:11.873Z,12.91
2022-09-28T21:48:38.439Z,13.63
2022-09-28T21:51:08.667Z,14.11
2022-09-28T21:53:37.130Z,14.13
2022-09-28T21:56:09.069Z,14.03
2022-09-28T21:58:36.471Z,13.99
2022-09-28T22:01:17.552Z,13.99
2022-09-28T22:03:49.966Z,14.00
2022-09-28T22:06:20.004Z,14.06
2022-09-28T22:08:48.575Z,14.07
2022-09-28T22:11:20.462Z,14.11
2022-09-28T22:13:50.759Z,14.06
2022-09-28T22:16:19.784Z,14.00
2022-09-28T22:18:46.770Z,14.13
2022-09-28T22:21:21.954Z,14.22
2022-09-28T22:23:48.616Z,14.14
2022-09-28T22:26:24.620Z,14.02
2022-09-28T22:28:55.900Z,14.04
2022-09-28T22:31:26.831Z,13.95
2022-09-28T22:33:53.547Z,13.83
2022-09-28T22:36:20.405Z,13.82
2022-09-28T22:38:48.297Z,13.84
2022-09-28T22:41:20.271Z,13.68
2022-09-28T22:43:49.275Z,13.59
2022-09-28T22:46:20.060Z,13.48
2022-09-28T22:48:50.171Z,13.42
2022-09-28T22:51:16.604Z,13.46
2022-09-28T22:53:43.756Z,13.59
2022-09-28T22:56:14.651Z,13.71
2022-09-28T22:58:44.332Z,13.79
2022-09-28T23:01:16.570Z,13.83
2022-09-28T23:03:44.215Z,13.68
2022-09-28T23:06:15.421Z,13.46
2022-09-28T23:08:43.844Z,13.35
2022-09-28T23:11:11.187Z,13.35
2022-09-28T23:13:37.904Z,13.47
2022-09-28T23:16:07.719Z,13.61
2022-09-28T23:18:36.891Z,13.68
2022-09-28T23:21:11.682Z,13.71
2022-09-28T23:23:38.599Z,13.72
2022-09-28T23:26:17.343Z,13.73
2022-09-28T23:28:44.931Z,13.75
2022-09-28T23:31:22.542Z,13.80
2022-09-28T23:33:50.737Z,13.84
2022-09-28T23:36:17.764Z,13.88
2022-09-28T23:38:44.549Z,13.83
2022-09-28T23:41:11.033Z,13.78
2022-09-28T23:43:37.491Z,13.79
2022-09-28T23:46:04.853Z,13.80
2022-09-28T23:48:32.629Z,13.81
2022-09-28T23:51:00.044Z,13.95
2022-09-28T23:53:27.052Z,14.30
2022-09-28T23:55:53.851Z,14.72
2022-09-28T23:58:20.696Z,14.72
